ブリスベン の空港の天気 - METARとTAF

ブリスベン空港 ( YBBN / BNE ) - オーストラリア クイーンズランド州ブリスベン
飛行場実況気象(Metar)
観測時間01/19 21:00 AEST (01/19 11:00 UTC)
風向・風速北 7m/s
視程10km以上
天気現象
なし
気温25℃
湿度78%
気圧1015hPa
METARYBBN 191100Z 01013KT CAVOK 25/21 Q1015
過去の天気等 Google飛行場航空写真 Wunderground天気予報

過去48時間のMETAR

飛行場予報(TAF)
発表時間: 1/19 15:05 AEST (1/19 05:05 UTC)
予報対象時間: 19日16時 AEST ~ 20日22時 AEST
風向・風速北東 7m/s
視程10km以上
少しの雲 雲底高度 1220m
19日19時 AEST から
風向・風速北北東 5m/s
視程10km以上
少しの雲 雲底高度 910m
20日0時 AEST から
風向・風速南南西 3m/s
視程10km以上
少しの雲 雲底高度 760m
20日8時 AEST から
風向・風速東南東 4m/s
視程10km以上
少しの雲 雲底高度 910m
20日11時 AEST から
風向・風速東 6m/s
視程10km以上
少しの雲 雲底高度 1220m
TAF YBBN 190505Z 1906/2012 04014KT 9999 FEW040
FM190900 02010KT 9999 FEW030
FM191400 21005KT 9999 FEW025
FM192200 12008KT 9999 FEW030
FM200100 08012KT 9999 FEW040